createdAt,value
2022-12-11T00:52:21.377Z,23.08
2022-12-11T01:22:30.614Z,25.02
2022-12-11T01:57:42.623Z,24.08
2022-12-11T02:17:56.761Z,19.90
2022-12-11T02:20:51.471Z,20.27
2022-12-11T02:28:08.258Z,21.83
2022-12-11T02:31:09.298Z,28.33
2022-12-11T02:43:12.579Z,21.45
2022-12-11T02:50:16.221Z,29.80
2022-12-11T02:57:21.014Z,21.85
2022-12-11T03:00:23.253Z,24.15
2022-12-11T03:03:48.675Z,22.77
2022-12-11T03:06:55.095Z,20.95
2022-12-11T03:09:55.928Z,20.90
2022-12-11T03:12:53.865Z,18.35
2022-12-11T03:15:59.413Z,21.05
2022-12-11T03:19:14.253Z,20.10
2022-12-11T03:22:43.337Z,18.30
2022-12-11T03:25:21.581Z,18.95
2022-12-11T03:28:00.320Z,20.95
2022-12-11T03:31:30.712Z,18.65
2022-12-11T03:43:02.169Z,20.83
2022-12-11T03:45:36.071Z,20.15
2022-12-11T03:55:07.488Z,21.30
2022-12-11T04:01:08.345Z,20.05
2022-12-11T04:04:21.199Z,18.55
2022-12-11T04:10:19.925Z,19.88
2022-12-11T04:12:52.390Z,30.48
2022-12-11T04:15:35.525Z,17.73
2022-12-11T04:18:24.048Z,22.65
2022-12-11T04:21:13.854Z,20.77
2022-12-11T04:24:18.414Z,22.95
2022-12-11T04:26:53.662Z,23.70
2022-12-11T04:29:27.148Z,21.80
2022-12-11T04:31:59.554Z,20.88
2022-12-11T04:34:41.716Z,19.98
2022-12-11T04:37:21.586Z,23.85
2022-12-11T04:39:53.150Z,24.33
2022-12-11T04:42:27.743Z,19.00
2022-12-11T04:45:05.340Z,20.73
2022-12-11T04:47:37.534Z,23.15
2022-12-11T04:50:48.774Z,20.83
2022-12-11T04:53:20.145Z,22.45
2022-12-11T04:55:51.007Z,21.83
2022-12-11T04:58:24.263Z,23.17
2022-12-11T05:01:17.242Z,19.90
2022-12-11T05:03:50.204Z,21.02
2022-12-11T05:06:21.285Z,18.73
2022-12-11T05:08:51.971Z,18.85
2022-12-11T05:11:24.251Z,20.63
2022-12-11T05:13:57.767Z,19.63
2022-12-11T05:16:36.683Z,24.58
2022-12-11T05:25:00.894Z,20.30
2022-12-11T05:47:33.533Z,20.45
2022-12-11T05:50:16.792Z,26.88
2022-12-11T05:53:28.551Z,22.38
2022-12-11T05:56:41.346Z,22.85
2022-12-11T05:59:22.491Z,24.55
2022-12-11T06:01:59.073Z,23.23
2022-12-11T06:04:36.895Z,23.65
2022-12-11T06:07:22.532Z,26.63
2022-12-11T06:10:01.354Z,24.95
2022-12-11T06:12:44.857Z,25.50
2022-12-11T06:15:24.345Z,26.15
2022-12-11T06:18:06.015Z,26.45
2022-12-11T06:20:41.758Z,28.35
2022-12-11T06:23:34.608Z,27.27
2022-12-11T06:26:07.888Z,26.40
2022-12-11T06:28:43.535Z,31.10
2022-12-11T06:31:18.059Z,27.52
2022-12-11T06:33:51.937Z,30.52
2022-12-11T06:37:30.493Z,31.40
2022-12-11T06:47:33.382Z,25.70
2022-12-11T06:50:02.505Z,34.90
2022-12-11T06:52:33.261Z,32.65
2022-12-11T06:55:01.283Z,29.02
2022-12-11T06:57:29.515Z,32.13
2022-12-11T06:59:57.744Z,30.58
2022-12-11T07:02:26.007Z,35.67
2022-12-11T07:04:55.601Z,37.60
2022-12-11T07:07:23.663Z,28.13
2022-12-11T07:09:53.177Z,33.35
2022-12-11T07:12:21.427Z,33.17
2022-12-11T07:14:58.637Z,35.83
2022-12-11T07:17:27.080Z,31.42
2022-12-11T07:19:56.761Z,32.00
2022-12-11T07:22:25.251Z,30.38
2022-12-11T07:24:53.704Z,28.55
2022-12-11T07:27:21.707Z,33.78
2022-12-11T07:29:52.272Z,27.30
2022-12-11T07:32:20.510Z,31.70
2022-12-11T07:34:51.983Z,28.65
2022-12-11T07:37:21.696Z,33.15
2022-12-11T07:39:50.057Z,36.17
2022-12-11T07:42:18.290Z,35.30
2022-12-11T07:44:46.645Z,33.58
2022-12-11T07:47:15.111Z,30.58
2022-12-11T07:49:43.437Z,31.00
2022-12-11T07:52:11.525Z,30.85
2022-12-11T07:54:41.335Z,36.25
2022-12-11T07:57:13.943Z,26.85
2022-12-11T07:59:42.818Z,34.53
2022-12-11T08:02:14.014Z,36.90
2022-12-11T08:04:42.125Z,39.05
2022-12-11T08:07:10.457Z,35.55
2022-12-11T08:09:38.571Z,28.20
2022-12-11T08:12:08.596Z,34.67
2022-12-11T08:14:37.153Z,37.20
2022-12-11T08:17:06.106Z,45.78
2022-12-11T08:19:43.035Z,32.78
2022-12-11T08:22:24.462Z,40.78
2022-12-11T08:25:03.430Z,35.88
2022-12-11T08:27:51.085Z,31.75
2022-12-11T08:34:50.220Z,28.70
2022-12-11T08:37:33.101Z,28.00
2022-12-11T08:48:03.281Z,36.03
2022-12-11T08:50:40.584Z,31.15
2022-12-11T08:53:18.707Z,24.17
2022-12-11T08:55:56.442Z,24.88
2022-12-11T08:58:24.710Z,24.30
2022-12-11T09:00:53.242Z,25.17
2022-12-11T09:03:23.477Z,23.05
2022-12-11T09:05:51.738Z,21.98
2022-12-11T09:08:19.913Z,28.42
2022-12-11T09:10:48.284Z,25.80
2022-12-11T09:13:16.528Z,28.15
2022-12-11T09:15:44.794Z,23.90
2022-12-11T09:18:13.003Z,20.88
2022-12-11T09:20:42.458Z,21.50
2022-12-11T09:23:10.846Z,22.35
2022-12-11T09:25:41.020Z,21.30
2022-12-11T09:28:09.417Z,21.30
2022-12-11T09:30:37.556Z,20.75
2022-12-11T09:33:07.367Z,25.65
2022-12-11T09:35:35.394Z,17.92
2022-12-11T09:38:05.114Z,24.60
2022-12-11T09:40:33.631Z,22.73
2022-12-11T09:43:07.876Z,21.75
2022-12-11T09:45:36.509Z,20.60
2022-12-11T09:48:04.965Z,20.30
2022-12-11T09:50:55.028Z,21.30
2022-12-11T09:53:34.072Z,23.15
2022-12-11T09:56:19.214Z,16.95
2022-12-11T09:59:03.240Z,21.05
2022-12-11T10:01:40.860Z,19.58
2022-12-11T10:04:30.436Z,21.92
2022-12-11T10:07:06.107Z,18.75
2022-12-11T10:09:44.554Z,19.35
2022-12-11T10:12:31.724Z,16.08
2022-12-11T10:15:16.209Z,19.30
2022-12-11T10:17:45.731Z,21.90
2022-12-11T10:20:23.660Z,20.65
2022-12-11T10:22:56.939Z,17.77
2022-12-11T10:25:32.358Z,19.08
2022-12-11T10:28:02.208Z,19.85
2022-12-11T10:30:38.084Z,21.65
2022-12-11T10:33:18.600Z,18.60
2022-12-11T10:35:51.045Z,17.08
2022-12-11T10:38:24.958Z,18.38
2022-12-11T10:40:57.147Z,21.27
2022-12-11T10:43:42.690Z,19.85
2022-12-11T10:46:17.428Z,20.95
2022-12-11T10:48:54.590Z,22.50
2022-12-11T10:51:25.620Z,16.77
2022-12-11T10:53:55.216Z,18.25
2022-12-11T10:56:29.568Z,18.85
2022-12-11T10:58:59.868Z,20.40
2022-12-11T11:01:30.196Z,22.30
2022-12-11T11:04:01.692Z,23.63
2022-12-11T11:06:30.083Z,24.10
2022-12-11T11:09:00.076Z,22.85
2022-12-11T11:11:34.314Z,19.40
2022-12-11T11:14:07.926Z,18.42
2022-12-11T11:16:38.374Z,21.95
2022-12-11T11:19:07.560Z,19.73
2022-12-11T11:22:08.285Z,19.38
2022-12-11T11:24:39.874Z,17.88
2022-12-11T11:27:21.194Z,21.75
2022-12-11T11:29:53.381Z,19.38
2022-12-11T11:32:25.943Z,21.48
2022-12-11T11:34:54.296Z,20.23
2022-12-11T11:37:31.380Z,20.45
2022-12-11T11:40:07.152Z,19.00
2022-12-11T11:42:45.995Z,17.75
2022-12-11T11:45:18.550Z,17.35
2022-12-11T11:47:58.147Z,19.80
2022-12-11T11:50:30.560Z,20.50
2022-12-11T11:53:06.782Z,20.20
2022-12-11T11:55:44.273Z,19.27
2022-12-11T11:58:19.436Z,19.77
2022-12-11T12:00:48.716Z,20.02
2022-12-11T12:03:20.536Z,24.05
2022-12-11T12:05:55.133Z,17.08
2022-12-11T12:08:35.930Z,20.00
2022-12-11T12:11:13.160Z,21.48
2022-12-11T12:13:52.103Z,18.13
2022-12-11T12:16:52.193Z,19.35
2022-12-11T12:19:36.531Z,21.08
2022-12-11T12:22:21.942Z,19.40
2022-12-11T12:25:08.381Z,16.98
2022-12-11T12:27:53.273Z,18.33
2022-12-11T12:30:24.168Z,18.20
2022-12-11T12:33:07.129Z,20.48
2022-12-11T12:35:40.431Z,19.20
2022-12-11T12:38:16.707Z,20.98
2022-12-11T12:40:58.223Z,26.38
2022-12-11T12:43:48.376Z,25.15
2022-12-11T12:46:28.923Z,19.77
2022-12-11T12:49:00.183Z,21.23
2022-12-11T12:51:29.601Z,24.40
2022-12-11T12:54:06.661Z,19.30
2022-12-11T12:56:40.653Z,21.83
2022-12-11T12:59:20.654Z,22.60
2022-12-11T13:01:55.190Z,18.35
2022-12-11T13:07:30.792Z,19.88
2022-12-11T13:10:06.203Z,21.50
2022-12-11T13:12:43.640Z,22.13
2022-12-11T13:15:26.520Z,24.23
2022-12-11T13:17:56.108Z,25.10
2022-12-11T13:20:27.028Z,26.35
2022-12-11T13:23:09.150Z,24.17
2022-12-11T13:25:49.336Z,25.48
2022-12-11T13:28:28.241Z,24.17
2022-12-11T13:31:20.510Z,22.27
2022-12-11T13:33:52.026Z,25.00
2022-12-11T13:36:31.223Z,26.15
2022-12-11T13:39:03.963Z,24.58
2022-12-11T13:41:35.919Z,22.13
2022-12-11T13:44:06.402Z,28.00
2022-12-11T13:46:37.908Z,27.73
2022-12-11T13:49:19.728Z,24.35
2022-12-11T13:51:54.493Z,24.20
2022-12-11T13:54:23.054Z,24.52
2022-12-11T13:56:55.639Z,23.27
2022-12-11T13:59:30.128Z,24.23
2022-12-11T14:02:02.391Z,22.55
2022-12-11T14:04:34.735Z,22.48
2022-12-11T14:07:03.688Z,22.77
2022-12-11T14:09:31.960Z,23.75
2022-12-11T14:12:00.137Z,23.70
2022-12-11T14:14:35.847Z,26.33
2022-12-11T14:17:04.399Z,23.77
2022-12-11T14:19:34.676Z,20.58
2022-12-11T14:22:05.227Z,26.05
2022-12-11T14:24:34.033Z,19.40
2022-12-11T14:27:02.127Z,22.55
2022-12-11T14:29:33.416Z,25.10
2022-12-11T14:32:05.982Z,22.55
2022-12-11T14:34:38.174Z,22.88
2022-12-11T14:37:08.634Z,33.17
2022-12-11T14:39:41.575Z,36.15
2022-12-11T14:42:15.981Z,29.85
2022-12-11T14:44:51.594Z,32.25
2022-12-11T14:47:24.549Z,31.67
2022-12-11T14:49:58.732Z,33.25
2022-12-11T14:52:31.529Z,31.90
2022-12-11T14:55:19.148Z,30.75
2022-12-11T14:57:50.705Z,33.83
2022-12-11T15:00:27.206Z,33.53
2022-12-11T15:03:00.930Z,32.25
2022-12-11T15:05:34.489Z,36.88
2022-12-11T15:08:24.520Z,34.00
2022-12-11T15:11:04.421Z,44.53
2022-12-11T15:13:53.696Z,38.03
2022-12-11T15:16:24.403Z,34.08
2022-12-11T15:18:55.670Z,37.95
2022-12-11T15:21:32.489Z,44.60
2022-12-11T15:24:03.379Z,33.58
2022-12-11T15:26:36.975Z,31.98
2022-12-11T15:29:07.779Z,37.42
2022-12-11T15:31:36.327Z,32.83
2022-12-11T15:34:04.520Z,35.88
2022-12-11T15:36:35.940Z,34.13
2022-12-11T15:39:08.780Z,40.10
2022-12-11T15:41:37.271Z,47.40
2022-12-11T15:44:05.706Z,41.92
2022-12-11T15:46:37.075Z,43.22
2022-12-11T15:49:13.504Z,41.10
2022-12-11T15:51:43.610Z,38.15
2022-12-11T15:54:12.052Z,36.80
2022-12-11T15:56:40.606Z,40.40
2022-12-11T15:59:09.467Z,37.85
2022-12-11T16:01:37.616Z,39.00
2022-12-11T16:04:06.096Z,43.05
2022-12-11T16:06:34.638Z,43.58
2022-12-11T16:09:05.214Z,43.83
2022-12-11T16:11:33.302Z,41.78
2022-12-11T16:14:04.623Z,32.55
2022-12-11T16:16:35.173Z,38.00
2022-12-11T16:19:03.366Z,40.30
2022-12-11T16:21:31.897Z,38.33
2022-12-11T16:24:00.228Z,35.65
2022-12-11T16:26:29.783Z,36.22
2022-12-11T16:28:58.265Z,35.90
2022-12-11T16:31:26.404Z,39.20
2022-12-11T16:33:54.615Z,41.70
2022-12-11T16:36:23.061Z,33.67
2022-12-11T16:38:54.164Z,38.50
2022-12-11T16:41:23.889Z,36.22
2022-12-11T16:43:55.005Z,39.17
2022-12-11T16:46:24.952Z,36.40
2022-12-11T16:48:53.073Z,37.67
2022-12-11T16:51:21.714Z,43.92
2022-12-11T16:53:49.775Z,41.20
2022-12-11T16:56:17.785Z,34.97
2022-12-11T16:58:47.589Z,37.63
2022-12-11T17:01:17.445Z,39.60
2022-12-11T17:03:45.567Z,34.25
2022-12-11T17:06:15.294Z,44.40
2022-12-11T17:08:43.383Z,44.90
2022-12-11T17:11:13.870Z,34.78
2022-12-11T17:13:46.716Z,37.97
2022-12-11T17:16:25.646Z,41.30
2022-12-11T17:18:56.623Z,40.05
2022-12-11T17:21:25.628Z,34.80
2022-12-11T17:27:40.712Z,42.38
2022-12-11T17:30:10.330Z,39.63
2022-12-11T17:32:39.812Z,36.38
2022-12-11T17:35:08.579Z,36.15
2022-12-11T17:37:36.715Z,36.85
2022-12-11T17:40:05.441Z,35.08
2022-12-11T17:42:33.700Z,31.88
2022-12-11T17:45:02.228Z,37.42
2022-12-11T17:47:30.412Z,34.42
2022-12-11T17:49:59.889Z,31.25
2022-12-11T17:52:33.825Z,36.97
2022-12-11T17:55:03.118Z,35.17
2022-12-11T17:57:31.326Z,37.78
2022-12-11T17:59:59.449Z,35.83
2022-12-11T18:02:27.623Z,35.50
2022-12-11T18:04:55.725Z,32.17
2022-12-11T18:07:25.255Z,37.15
2022-12-11T18:09:53.345Z,40.90
2022-12-11T18:12:21.407Z,37.70
2022-12-11T18:14:49.533Z,43.08
2022-12-11T18:17:17.648Z,40.20
2022-12-11T18:19:46.333Z,42.17
2022-12-11T18:22:14.826Z,35.97
2022-12-11T18:24:44.654Z,39.85
2022-12-11T18:27:16.925Z,37.38
2022-12-11T18:29:44.972Z,45.47
2022-12-11T18:32:13.056Z,35.92
2022-12-11T18:34:41.188Z,37.67
2022-12-11T18:37:09.474Z,30.73
2022-12-11T18:39:47.826Z,33.90
2022-12-11T18:42:32.893Z,36.92
2022-12-11T18:45:01.997Z,35.88
2022-12-11T18:47:30.515Z,36.40
2022-12-11T18:50:03.904Z,34.42
2022-12-11T18:52:35.524Z,35.35
2022-12-11T18:55:05.634Z,35.03
2022-12-11T18:57:33.757Z,30.27
2022-12-11T19:00:07.119Z,33.45
2022-12-11T19:02:35.375Z,35.55
2022-12-11T19:05:03.788Z,32.17
2022-12-11T19:07:32.275Z,33.88
2022-12-11T19:10:00.559Z,30.63
2022-12-11T19:12:29.997Z,31.15
2022-12-11T19:14:58.213Z,31.77
2022-12-11T19:17:26.386Z,28.83
2022-12-11T19:19:54.687Z,37.92
2022-12-11T19:22:22.865Z,35.38
2022-12-11T19:24:51.001Z,34.03
2022-12-11T19:27:19.182Z,33.85
2022-12-11T19:29:48.609Z,36.65
2022-12-11T19:32:16.909Z,31.30
2022-12-11T19:34:45.193Z,30.77
2022-12-11T19:37:16.013Z,31.85
2022-12-11T19:39:45.891Z,35.20
2022-12-11T19:42:37.595Z,39.47
2022-12-11T19:45:11.008Z,47.90
2022-12-11T19:47:41.615Z,40.28
2022-12-11T19:50:11.756Z,40.20
2022-12-11T19:52:46.312Z,46.10
2022-12-11T19:55:22.569Z,48.35
2022-12-11T19:57:53.174Z,43.45
2022-12-11T20:00:25.265Z,40.40
2022-12-11T20:02:57.235Z,40.45
2022-12-11T20:05:31.013Z,39.05
2022-12-11T20:08:27.303Z,43.92
2022-12-11T20:10:53.196Z,52.10
2022-12-11T20:13:24.583Z,54.40
2022-12-11T20:15:54.506Z,53.05
2022-12-11T20:18:22.703Z,43.00
2022-12-11T20:20:51.993Z,47.13
2022-12-11T20:23:21.916Z,43.22
2022-12-11T20:25:58.736Z,40.58
2022-12-11T20:28:27.935Z,49.00
2022-12-11T20:31:04.853Z,47.50
2022-12-11T20:33:33.012Z,45.10
2022-12-11T20:36:01.939Z,39.30
2022-12-11T20:38:34.478Z,46.35
2022-12-11T20:41:02.909Z,45.90
2022-12-11T20:43:31.242Z,42.50
2022-12-11T20:46:01.233Z,43.22
2022-12-11T20:48:29.588Z,41.00
2022-12-11T20:51:00.981Z,49.88
2022-12-11T20:53:29.501Z,43.08
2022-12-11T20:55:57.781Z,40.40
2022-12-11T20:58:25.883Z,45.78
2022-12-11T21:00:54.291Z,45.50
2022-12-11T21:03:23.839Z,43.67
2022-12-11T21:05:52.056Z,46.88
2022-12-11T21:08:20.299Z,43.30
2022-12-11T21:10:48.520Z,40.63
2022-12-11T21:13:16.800Z,40.45
2022-12-11T21:15:44.978Z,40.00
2022-12-11T21:18:13.073Z,49.55
2022-12-11T21:20:42.707Z,44.85
2022-12-11T21:23:10.892Z,39.13
2022-12-11T21:25:40.611Z,49.22
2022-12-11T21:28:09.395Z,42.95
2022-12-11T21:30:41.292Z,44.67
2022-12-11T21:33:09.557Z,36.67
2022-12-11T21:35:37.865Z,46.53
2022-12-11T21:38:07.370Z,61.28
2022-12-11T21:40:35.803Z,44.90
2022-12-11T21:43:04.016Z,46.70
2022-12-11T21:48:24.522Z,43.28
2022-12-11T21:50:52.658Z,45.90
2022-12-11T21:53:22.092Z,43.10
2022-12-11T21:55:50.215Z,39.70
2022-12-11T21:58:18.320Z,43.70
2022-12-11T22:01:15.394Z,50.35
2022-12-11T22:03:43.436Z,47.92
2022-12-11T22:06:11.453Z,47.20
2022-12-11T22:08:41.250Z,40.80
2022-12-11T22:11:10.038Z,45.70
2022-12-11T22:13:38.490Z,37.47
2022-12-11T22:16:06.876Z,41.28
2022-12-11T22:18:35.101Z,37.95
2022-12-11T22:21:03.359Z,43.55
2022-12-11T22:23:31.496Z,37.25
2022-12-11T22:26:01.398Z,39.72
2022-12-11T22:28:29.572Z,35.28
2022-12-11T22:30:57.716Z,43.13
2022-12-11T22:33:26.077Z,35.92
2022-12-11T22:35:57.645Z,40.55
2022-12-11T22:38:26.704Z,41.30
2022-12-11T22:40:55.462Z,47.58
2022-12-11T22:43:24.925Z,34.50
2022-12-11T22:45:53.050Z,42.17
2022-12-11T22:48:21.225Z,39.22
2022-12-11T22:50:49.325Z,36.78
2022-12-11T22:53:17.536Z,37.45
2022-12-11T22:55:45.608Z,36.75
2022-12-11T22:58:18.547Z,40.90
2022-12-11T23:00:50.900Z,40.38
2022-12-11T23:03:19.982Z,40.03
2022-12-11T23:05:48.017Z,40.92
2022-12-11T23:08:16.213Z,37.65
2022-12-11T23:10:44.335Z,44.25
2022-12-11T23:13:12.396Z,44.35
2022-12-11T23:15:40.428Z,38.53
2022-12-11T23:18:09.832Z,36.47
2022-12-11T23:20:38.034Z,31.63
2022-12-11T23:23:06.165Z,41.13
2022-12-11T23:25:34.294Z,35.70
2022-12-11T23:28:02.354Z,35.50
2022-12-11T23:30:30.608Z,32.65
2022-12-11T23:32:58.808Z,36.22
2022-12-11T23:35:28.292Z,29.33
2022-12-11T23:37:56.348Z,36.78
2022-12-11T23:40:24.476Z,33.22
2022-12-11T23:42:52.693Z,36.10
2022-12-11T23:45:21.176Z,35.55
2022-12-11T23:47:50.144Z,33.47
2022-12-11T23:50:18.360Z,28.05
2022-12-11T23:52:47.777Z,36.80
2022-12-11T23:55:15.859Z,28.77
2022-12-11T23:57:43.977Z,34.60
